createdAt,value
2018-01-30T00:00:24.641Z,8.30
2018-01-30T00:02:52.164Z,8.20
2018-01-30T00:05:19.752Z,8.30
2018-01-30T00:07:47.314Z,8.30
2018-01-30T00:10:14.862Z,8.30
2018-01-30T00:12:42.392Z,8.30
2018-01-30T00:15:09.964Z,8.30
2018-01-30T00:17:37.505Z,8.30
2018-01-30T00:20:05.090Z,8.30
2018-01-30T00:22:33.392Z,8.30
2018-01-30T00:25:01.156Z,8.30
2018-01-30T00:27:28.686Z,8.20
2018-01-30T00:29:56.279Z,8.30
2018-01-30T00:32:23.779Z,8.30
2018-01-30T00:34:51.391Z,8.40
2018-01-30T00:37:18.915Z,8.30
2018-01-30T00:39:47.269Z,8.30
2018-01-30T00:42:15.041Z,8.30
2018-01-30T00:44:42.615Z,8.20
2018-01-30T00:47:10.170Z,8.20
2018-01-30T00:49:37.741Z,8.10
2018-01-30T00:52:06.014Z,8.00
2018-01-30T00:54:33.534Z,8.00
2018-01-30T00:57:01.078Z,8.00
2018-01-30T00:59:28.676Z,8.00
2018-01-30T01:01:56.276Z,8.00
2018-01-30T01:04:24.016Z,8.00
2018-01-30T01:06:51.660Z,8.10
2018-01-30T01:09:19.261Z,8.20
2018-01-30T01:11:46.734Z,8.30
2018-01-30T01:14:14.250Z,8.30
2018-01-30T01:16:42.670Z,8.30
2018-01-30T01:19:10.222Z,8.30
2018-01-30T01:21:37.809Z,8.30
2018-01-30T01:24:05.470Z,8.30
2018-01-30T01:26:33.258Z,8.30
2018-01-30T01:29:00.821Z,8.20
2018-01-30T01:31:28.368Z,8.20
2018-01-30T01:33:55.918Z,8.20
2018-01-30T01:36:23.670Z,8.20
2018-01-30T01:38:51.214Z,8.20
2018-01-30T01:41:18.870Z,8.30
2018-01-30T01:43:46.591Z,8.30
2018-01-30T01:46:14.143Z,8.30
2018-01-30T01:48:41.665Z,8.40
2018-01-30T01:51:09.180Z,8.40
2018-01-30T01:53:36.690Z,8.10
2018-01-30T01:56:04.228Z,8.00
2018-01-30T01:58:31.788Z,8.10
2018-01-30T02:01:00.154Z,8.20
2018-01-30T02:03:27.727Z,8.20
2018-01-30T02:05:56.092Z,8.10
2018-01-30T02:08:23.632Z,8.10
2018-01-30T02:10:51.175Z,8.10
2018-01-30T02:13:18.717Z,8.10
2018-01-30T02:15:47.138Z,8.10
2018-01-30T02:18:15.324Z,8.10
2018-01-30T02:20:43.950Z,8.20
2018-01-30T02:23:11.561Z,8.20
2018-01-30T02:25:40.085Z,8.00
2018-01-30T02:28:07.882Z,8.00
2018-01-30T02:30:35.478Z,8.00
2018-01-30T02:33:03.836Z,7.90
2018-01-30T02:35:31.392Z,7.80
2018-01-30T02:37:58.968Z,7.90
2018-01-30T02:40:26.670Z,7.90
2018-01-30T02:42:54.263Z,7.90
2018-01-30T02:45:21.994Z,7.90
2018-01-30T02:47:49.539Z,8.00
2018-01-30T02:50:17.135Z,8.00
2018-01-30T02:52:44.691Z,8.00
2018-01-30T02:55:12.425Z,7.90
2018-01-30T02:57:40.062Z,8.00
2018-01-30T03:00:07.665Z,8.10
2018-01-30T03:02:35.311Z,8.00
2018-01-30T03:05:02.901Z,8.20
2018-01-30T03:07:30.487Z,8.20
2018-01-30T03:09:58.036Z,8.10
2018-01-30T03:12:25.596Z,8.10
2018-01-30T03:14:53.133Z,7.90
2018-01-30T03:17:20.679Z,7.90
2018-01-30T03:19:48.221Z,7.80
2018-01-30T03:22:15.755Z,7.90
2018-01-30T03:24:43.310Z,7.90
2018-01-30T03:27:10.786Z,7.80
2018-01-30T03:29:38.419Z,7.90
2018-01-30T03:32:05.984Z,7.90
2018-01-30T03:34:33.517Z,8.00
2018-01-30T03:37:01.153Z,8.00
2018-01-30T03:39:28.726Z,7.90
2018-01-30T03:41:56.260Z,7.90
2018-01-30T03:44:23.832Z,7.90
2018-01-30T03:46:51.386Z,8.00
2018-01-30T03:49:19.048Z,8.00
2018-01-30T03:51:47.383Z,8.00
2018-01-30T03:54:15.048Z,8.10
2018-01-30T03:56:42.607Z,8.00
2018-01-30T03:59:10.165Z,8.00
2018-01-30T04:01:38.518Z,8.10
2018-01-30T04:04:06.193Z,8.10
2018-01-30T04:06:33.754Z,8.10
2018-01-30T04:09:01.291Z,8.00
2018-01-30T04:11:28.902Z,8.00
2018-01-30T04:13:56.519Z,8.10
2018-01-30T04:16:24.178Z,8.20
2018-01-30T04:18:51.758Z,8.20
2018-01-30T04:21:19.312Z,8.30
2018-01-30T04:23:46.843Z,8.30
2018-01-30T04:26:14.413Z,8.20
2018-01-30T04:28:42.006Z,8.20
2018-01-30T04:31:09.600Z,8.20
2018-01-30T04:33:37.203Z,8.20
2018-01-30T04:36:04.809Z,8.20
2018-01-30T04:38:33.158Z,8.10
2018-01-30T04:41:00.729Z,8.10
2018-01-30T04:43:28.259Z,8.00
2018-01-30T04:45:55.838Z,8.10
2018-01-30T04:48:23.450Z,8.20
2018-01-30T04:50:51.009Z,8.20
2018-01-30T04:53:18.595Z,8.20
2018-01-30T04:55:46.286Z,8.20
2018-01-30T04:58:13.944Z,8.00
2018-01-30T05:00:41.471Z,8.00
2018-01-30T05:03:09.282Z,8.00
2018-01-30T05:05:36.854Z,7.90
2018-01-30T05:08:04.585Z,7.80
2018-01-30T05:10:32.226Z,7.70
2018-01-30T05:12:59.979Z,7.70
2018-01-30T05:15:27.547Z,7.80
2018-01-30T05:17:55.064Z,7.90
2018-01-30T05:20:23.447Z,7.90
2018-01-30T05:22:51.155Z,7.90
2018-01-30T05:25:18.853Z,8.00
2018-01-30T05:27:46.445Z,8.00
2018-01-30T05:30:13.933Z,8.00
2018-01-30T05:32:41.463Z,8.00
2018-01-30T05:35:09.117Z,8.00
2018-01-30T05:37:36.674Z,7.90
2018-01-30T05:40:04.253Z,7.90
2018-01-30T05:42:31.813Z,7.80
2018-01-30T05:45:00.463Z,7.80
2018-01-30T05:47:28.018Z,7.80
2018-01-30T05:49:56.313Z,7.80
2018-01-30T05:52:25.187Z,7.90
2018-01-30T05:54:52.989Z,7.90
2018-01-30T05:57:20.569Z,8.00
2018-01-30T05:59:48.149Z,8.00
2018-01-30T06:02:15.812Z,8.00
2018-01-30T06:04:43.346Z,7.90
2018-01-30T06:07:11.006Z,7.80
2018-01-30T06:09:38.629Z,7.80
2018-01-30T06:12:06.213Z,7.80
2018-01-30T06:14:33.785Z,7.90
2018-01-30T06:17:06.028Z,7.80
2018-01-30T06:19:33.753Z,7.80
2018-01-30T06:22:01.344Z,7.80
2018-01-30T06:24:28.890Z,7.80
2018-01-30T06:26:56.995Z,7.80
2018-01-30T06:29:24.562Z,7.90
2018-01-30T06:31:52.128Z,7.80
2018-01-30T06:34:19.688Z,7.80
2018-01-30T06:36:47.269Z,7.90
2018-01-30T06:39:14.879Z,7.80
2018-01-30T06:41:43.222Z,7.80
2018-01-30T06:44:10.920Z,7.80
2018-01-30T06:46:38.540Z,7.80
2018-01-30T06:49:06.291Z,7.80
2018-01-30T06:51:33.922Z,7.80
2018-01-30T06:54:01.644Z,7.70
2018-01-30T06:56:29.238Z,7.50
2018-01-30T06:58:57.504Z,7.60
2018-01-30T07:01:26.047Z,7.70
2018-01-30T07:03:53.733Z,7.70
2018-01-30T07:06:21.343Z,7.70
2018-01-30T07:08:48.849Z,7.70
2018-01-30T07:11:16.442Z,7.70
2018-01-30T07:13:44.130Z,7.70
2018-01-30T07:16:11.732Z,7.80
2018-01-30T07:18:39.220Z,7.80
2018-01-30T07:21:06.799Z,7.70
2018-01-30T07:23:34.494Z,7.60
2018-01-30T07:26:02.014Z,7.70
2018-01-30T07:28:29.706Z,7.60
2018-01-30T07:30:57.303Z,7.60
2018-01-30T07:33:24.872Z,7.60
2018-01-30T07:35:52.417Z,7.60
2018-01-30T07:38:19.957Z,7.70
2018-01-30T07:40:47.496Z,7.80
2018-01-30T07:43:15.085Z,7.90
2018-01-30T07:45:42.934Z,7.80
2018-01-30T07:48:10.482Z,7.70
2018-01-30T07:50:38.140Z,7.70
2018-01-30T07:53:05.718Z,7.70
2018-01-30T07:55:33.310Z,7.70
2018-01-30T07:58:01.031Z,7.80
2018-01-30T08:00:28.599Z,7.70
2018-01-30T08:02:56.152Z,7.70
2018-01-30T08:05:23.804Z,7.80
2018-01-30T08:07:51.378Z,7.90
2018-01-30T08:10:19.035Z,7.80
2018-01-30T08:12:46.600Z,7.70
2018-01-30T08:15:14.106Z,7.80
2018-01-30T08:17:41.643Z,7.90
2018-01-30T08:20:09.382Z,7.80
2018-01-30T08:22:36.912Z,7.90
2018-01-30T08:25:05.184Z,7.80
2018-01-30T08:27:32.853Z,7.80
2018-01-30T08:30:00.434Z,7.80
2018-01-30T08:32:27.950Z,7.70
2018-01-30T08:34:56.376Z,7.90
2018-01-30T08:37:23.888Z,7.90
2018-01-30T08:39:51.537Z,7.80
2018-01-30T08:42:19.046Z,7.80
2018-01-30T08:44:46.804Z,7.80
2018-01-30T08:47:14.350Z,7.80
2018-01-30T08:49:42.044Z,7.90
2018-01-30T08:52:10.378Z,7.90
2018-01-30T08:54:37.883Z,7.90
2018-01-30T08:57:05.480Z,8.00
2018-01-30T08:59:33.155Z,7.90
2018-01-30T09:02:01.088Z,7.90
2018-01-30T09:04:28.730Z,7.90
2018-01-30T09:06:56.229Z,7.90
2018-01-30T09:09:24.557Z,8.10
2018-01-30T09:11:52.129Z,8.00
2018-01-30T09:14:19.655Z,8.10
2018-01-30T09:16:47.244Z,8.10
2018-01-30T09:19:14.780Z,8.10
2018-01-30T09:21:42.307Z,8.00
2018-01-30T09:24:09.896Z,8.10
2018-01-30T09:26:38.321Z,8.00
2018-01-30T09:29:05.832Z,8.00
2018-01-30T09:31:35.032Z,7.90
2018-01-30T09:34:02.713Z,7.90
2018-01-30T09:36:30.475Z,7.90
2018-01-30T09:38:58.006Z,7.90
2018-01-30T09:41:25.525Z,7.90
2018-01-30T09:43:53.165Z,7.90
2018-01-30T09:46:20.722Z,7.90
2018-01-30T09:48:48.455Z,7.80
2018-01-30T09:51:16.176Z,7.80
2018-01-30T09:53:43.724Z,7.80
2018-01-30T09:56:11.478Z,7.90
2018-01-30T09:58:38.999Z,8.00
2018-01-30T10:01:07.336Z,8.00
2018-01-30T10:03:34.930Z,8.00
2018-01-30T10:06:03.763Z,8.10
2018-01-30T10:08:31.325Z,8.10
2018-01-30T10:10:58.934Z,8.20
2018-01-30T10:13:26.460Z,8.30
2018-01-30T10:15:54.000Z,8.30
2018-01-30T10:18:21.683Z,8.20
2018-01-30T10:20:49.254Z,8.10
2018-01-30T10:23:16.715Z,8.10
2018-01-30T10:25:44.268Z,8.20
2018-01-30T10:28:11.867Z,8.30
2018-01-30T10:30:39.464Z,8.30
2018-01-30T10:33:07.099Z,8.30
2018-01-30T10:35:35.690Z,8.50
2018-01-30T10:38:03.183Z,8.50
2018-01-30T10:40:30.829Z,8.60
2018-01-30T10:42:58.506Z,8.70
2018-01-30T10:45:26.052Z,8.70
2018-01-30T10:47:53.678Z,8.70
2018-01-30T10:50:21.915Z,8.70
2018-01-30T10:52:49.478Z,8.70
2018-01-30T10:55:17.002Z,8.80
2018-01-30T10:57:44.578Z,8.90
2018-01-30T11:00:13.366Z,9.00
2018-01-30T11:02:41.021Z,9.10
2018-01-30T11:05:08.608Z,9.10
2018-01-30T11:07:36.943Z,9.10
2018-01-30T11:10:04.487Z,9.10
2018-01-30T11:12:32.828Z,9.10
2018-01-30T11:15:00.349Z,9.10
2018-01-30T11:17:27.919Z,9.20
2018-01-30T11:19:55.479Z,9.10
2018-01-30T11:22:23.068Z,9.20
2018-01-30T11:24:52.241Z,9.10
2018-01-30T11:27:20.058Z,9.10
2018-01-30T11:29:47.673Z,9.10
2018-01-30T11:32:15.440Z,9.10
2018-01-30T11:34:43.226Z,9.20
2018-01-30T11:37:10.762Z,9.30
2018-01-30T11:39:38.334Z,9.40
2018-01-30T11:42:06.052Z,9.40
2018-01-30T11:44:33.596Z,9.30
2018-01-30T11:47:01.979Z,9.20
2018-01-30T11:49:29.634Z,9.20
2018-01-30T11:51:57.145Z,9.20
2018-01-30T11:54:24.852Z,9.20
2018-01-30T11:56:53.213Z,9.40
2018-01-30T11:59:20.707Z,9.40
2018-01-30T12:01:48.217Z,9.50
2018-01-30T12:04:15.745Z,9.50
2018-01-30T12:06:43.309Z,9.50
2018-01-30T12:09:10.868Z,9.40
2018-01-30T12:11:38.390Z,9.60
2018-01-30T12:14:05.990Z,9.80
2018-01-30T12:16:33.519Z,10.00
2018-01-30T12:19:01.059Z,10.10
2018-01-30T12:21:29.373Z,9.90
2018-01-30T12:23:57.697Z,9.90
2018-01-30T12:26:25.374Z,9.90
2018-01-30T12:28:53.870Z,9.90
2018-01-30T12:31:21.356Z,9.90
2018-01-30T12:33:48.887Z,9.90
2018-01-30T12:36:17.349Z,9.70
2018-01-30T12:38:44.920Z,9.70
2018-01-30T12:41:12.486Z,9.60
2018-01-30T12:43:40.782Z,9.70
2018-01-30T12:46:08.351Z,9.70
2018-01-30T12:48:35.857Z,9.80
2018-01-30T12:51:03.901Z,9.80
2018-01-30T12:53:31.600Z,9.80
2018-01-30T12:55:59.505Z,9.90
2018-01-30T12:58:27.112Z,10.10
2018-01-30T13:00:54.627Z,10.20
2018-01-30T13:03:22.206Z,10.30
2018-01-30T13:05:49.728Z,10.30
2018-01-30T13:08:17.249Z,10.30
2018-01-30T13:10:45.481Z,10.30
2018-01-30T13:13:13.072Z,10.50
2018-01-30T13:15:40.917Z,10.50
2018-01-30T13:18:08.389Z,10.60
2018-01-30T13:20:35.903Z,10.60
2018-01-30T13:23:03.516Z,10.50
2018-01-30T13:25:31.223Z,10.50
2018-01-30T13:27:59.339Z,10.60
2018-01-30T13:30:26.794Z,10.60
2018-01-30T13:32:54.287Z,10.60
2018-01-30T13:35:23.215Z,10.60
2018-01-30T13:37:50.811Z,10.60
2018-01-30T13:40:18.560Z,10.80
2018-01-30T13:42:46.109Z,10.90
2018-01-30T13:45:14.146Z,11.00
2018-01-30T13:47:42.476Z,10.60
2018-01-30T13:50:10.059Z,10.60
2018-01-30T13:52:37.909Z,10.60
2018-01-30T13:55:05.472Z,10.70
2018-01-30T13:57:33.320Z,10.80
2018-01-30T14:00:00.906Z,10.70
2018-01-30T14:02:28.764Z,10.70
2018-01-30T14:04:56.541Z,10.70
2018-01-30T14:07:24.065Z,10.90
2018-01-30T14:09:51.633Z,10.90
2018-01-30T14:12:19.202Z,10.80
2018-01-30T14:14:46.846Z,11.10
2018-01-30T14:17:14.440Z,11.20
2018-01-30T14:19:42.131Z,11.30
2018-01-30T14:22:09.834Z,11.30
2018-01-30T14:24:38.141Z,11.20
2018-01-30T14:27:05.928Z,11.20
2018-01-30T14:29:33.539Z,11.00
2018-01-30T14:32:01.146Z,11.00
2018-01-30T14:34:28.721Z,10.90
2018-01-30T14:36:56.327Z,10.90
2018-01-30T14:39:23.936Z,10.90
2018-01-30T14:41:51.493Z,11.00
2018-01-30T14:44:19.264Z,11.00
2018-01-30T14:46:47.600Z,10.90
2018-01-30T14:49:15.190Z,10.90
2018-01-30T14:51:42.973Z,11.00
2018-01-30T14:54:10.683Z,11.00
2018-01-30T14:56:38.287Z,11.10
2018-01-30T14:59:05.849Z,11.10
2018-01-30T15:01:34.222Z,11.00
2018-01-30T15:04:01.766Z,11.00
2018-01-30T15:06:29.343Z,10.90
2018-01-30T15:08:56.891Z,10.80
2018-01-30T15:11:24.616Z,10.80
2018-01-30T15:13:52.240Z,10.80
2018-01-30T15:16:19.814Z,10.80
2018-01-30T15:18:47.366Z,10.80
2018-01-30T15:21:15.684Z,10.90
2018-01-30T15:23:43.222Z,10.80
2018-01-30T15:26:10.694Z,10.90
2018-01-30T15:28:38.249Z,10.80
2018-01-30T15:31:05.859Z,10.90
2018-01-30T15:33:34.225Z,10.80
2018-01-30T15:36:01.946Z,10.80
2018-01-30T15:38:29.530Z,10.80
2018-01-30T15:40:57.128Z,10.80
2018-01-30T15:43:25.464Z,10.80
2018-01-30T15:45:53.049Z,10.80
2018-01-30T15:48:20.572Z,10.80
2018-01-30T15:50:48.288Z,10.80
2018-01-30T15:53:17.436Z,10.70
2018-01-30T15:55:45.077Z,10.70
2018-01-30T15:58:12.652Z,10.60
2018-01-30T16:00:40.321Z,10.50
2018-01-30T16:03:07.822Z,10.50
2018-01-30T16:05:35.449Z,10.40
2018-01-30T16:08:03.002Z,10.40
2018-01-30T16:10:31.392Z,10.30
2018-01-30T16:12:58.960Z,10.30
2018-01-30T16:15:26.613Z,10.30
2018-01-30T16:17:54.153Z,10.20
2018-01-30T16:20:21.819Z,10.30
2018-01-30T16:22:49.479Z,10.30
2018-01-30T16:25:16.980Z,10.30
2018-01-30T16:27:44.541Z,10.20
2018-01-30T16:30:12.103Z,10.30
2018-01-30T16:32:40.255Z,10.30
2018-01-30T16:35:07.857Z,10.30
2018-01-30T16:37:35.389Z,10.20
2018-01-30T16:40:03.033Z,10.20
2018-01-30T16:42:31.550Z,10.30
2018-01-30T16:44:59.110Z,10.40
2018-01-30T16:47:27.438Z,10.50
2018-01-30T16:49:55.136Z,10.40
2018-01-30T16:52:22.663Z,10.30
2018-01-30T16:54:50.287Z,10.20
2018-01-30T16:57:17.922Z,10.20
2018-01-30T16:59:45.909Z,10.30
2018-01-30T17:02:13.534Z,10.20
2018-01-30T17:04:41.089Z,10.20
2018-01-30T17:07:08.643Z,10.20
2018-01-30T17:09:36.278Z,10.20
2018-01-30T17:12:03.930Z,10.20
2018-01-30T17:14:31.720Z,10.30
2018-01-30T17:16:59.287Z,10.20
2018-01-30T17:19:26.859Z,10.20
2018-01-30T17:21:54.402Z,10.20
2018-01-30T17:24:21.897Z,10.20
2018-01-30T17:26:49.538Z,10.20
2018-01-30T17:29:17.065Z,10.20
2018-01-30T17:31:44.953Z,10.20
2018-01-30T17:34:12.675Z,10.30
2018-01-30T17:36:41.015Z,10.20
2018-01-30T17:39:08.674Z,10.20
2018-01-30T17:41:36.243Z,10.30
2018-01-30T17:44:03.802Z,10.30
2018-01-30T17:46:31.571Z,10.40
2018-01-30T17:48:59.616Z,10.40
2018-01-30T17:51:27.145Z,10.40
2018-01-30T17:53:54.730Z,10.50
2018-01-30T17:56:22.308Z,10.40
2018-01-30T17:58:49.870Z,10.50
2018-01-30T18:01:17.480Z,10.40
2018-01-30T18:03:45.044Z,10.40
2018-01-30T18:06:12.601Z,10.40
2018-01-30T18:08:40.176Z,10.40
2018-01-30T18:11:07.836Z,10.30
2018-01-30T18:13:35.467Z,10.20
2018-01-30T18:16:03.818Z,10.30
2018-01-30T18:18:31.418Z,10.30
2018-01-30T18:20:59.832Z,10.30
2018-01-30T18:23:27.409Z,10.30
2018-01-30T18:25:55.936Z,10.30
2018-01-30T18:28:23.586Z,10.30
2018-01-30T18:30:51.116Z,10.30
2018-01-30T18:33:18.652Z,10.30
2018-01-30T18:35:46.205Z,10.30
2018-01-30T18:38:13.678Z,10.30
2018-01-30T18:40:41.204Z,10.40
2018-01-30T18:43:08.853Z,10.40
2018-01-30T18:45:37.187Z,10.30
2018-01-30T18:48:04.785Z,10.30
2018-01-30T18:50:32.427Z,10.20
2018-01-30T18:52:59.948Z,10.20
2018-01-30T18:55:27.533Z,10.10
2018-01-30T18:57:55.096Z,10.10
2018-01-30T19:00:22.677Z,10.10
2018-01-30T19:02:50.501Z,10.00
2018-01-30T19:05:18.038Z,10.00
2018-01-30T19:07:45.627Z,10.00
2018-01-30T19:10:13.231Z,10.00
2018-01-30T19:12:41.641Z,10.00
2018-01-30T19:15:09.243Z,10.00
2018-01-30T19:17:36.854Z,10.10
2018-01-30T19:20:04.400Z,10.10
2018-01-30T19:22:32.912Z,10.10
2018-01-30T19:25:00.549Z,10.10
2018-01-30T19:27:28.057Z,10.00
2018-01-30T19:29:55.577Z,10.00
2018-01-30T19:32:23.121Z,10.00
2018-01-30T19:34:51.594Z,9.90
2018-01-30T19:37:19.926Z,9.90
2018-01-30T19:39:47.502Z,9.90
2018-01-30T19:42:15.184Z,9.90
2018-01-30T19:44:43.577Z,10.00
2018-01-30T19:47:11.211Z,10.00
2018-01-30T19:49:38.939Z,9.90
2018-01-30T19:52:06.609Z,9.90
2018-01-30T19:54:34.157Z,9.90
2018-01-30T19:57:01.735Z,9.80
2018-01-30T19:59:29.203Z,9.70
2018-01-30T20:01:56.643Z,9.70
2018-01-30T20:04:24.204Z,9.70
2018-01-30T20:06:51.968Z,9.70
2018-01-30T20:09:19.541Z,9.70
2018-01-30T20:11:47.105Z,9.80
2018-01-30T20:14:14.671Z,9.80
2018-01-30T20:16:42.145Z,9.80
2018-01-30T20:19:09.733Z,9.80
2018-01-30T20:21:37.259Z,9.80
2018-01-30T20:24:04.864Z,9.70
2018-01-30T20:26:38.179Z,9.70
2018-01-30T20:29:06.048Z,9.80
2018-01-30T20:31:33.557Z,9.80
2018-01-30T20:34:01.937Z,9.80
2018-01-30T20:36:29.539Z,9.80
2018-01-30T20:38:57.083Z,9.80
2018-01-30T20:41:24.675Z,9.80
2018-01-30T20:43:52.198Z,9.90
2018-01-30T20:46:19.705Z,9.80
2018-01-30T20:48:47.274Z,9.70
2018-01-30T20:51:16.296Z,9.70
2018-01-30T20:53:44.645Z,9.80
2018-01-30T20:56:12.340Z,9.80
2018-01-30T20:58:39.981Z,9.80
2018-01-30T21:01:07.566Z,9.80
2018-01-30T21:03:35.161Z,9.90
2018-01-30T21:06:02.677Z,9.90
2018-01-30T21:08:30.940Z,9.90
2018-01-30T21:10:58.429Z,9.80
2018-01-30T21:13:25.904Z,9.90
2018-01-30T21:15:53.444Z,9.90
2018-01-30T21:18:20.940Z,9.90
2018-01-30T21:20:48.513Z,9.90
2018-01-30T21:23:16.201Z,9.90
2018-01-30T21:25:44.590Z,9.80
2018-01-30T21:28:12.131Z,9.70
2018-01-30T21:30:40.360Z,9.60
2018-01-30T21:33:07.950Z,9.60
2018-01-30T21:35:35.553Z,9.70
2018-01-30T21:38:03.182Z,9.80
2018-01-30T21:40:30.740Z,9.80
2018-01-30T21:42:59.481Z,9.80
2018-01-30T21:45:27.090Z,9.90
2018-01-30T21:47:54.637Z,9.90
2018-01-30T21:50:22.157Z,9.90
2018-01-30T21:52:49.766Z,9.90
2018-01-30T21:55:18.397Z,9.80
2018-01-30T21:57:45.930Z,9.70
2018-01-30T22:00:13.536Z,9.70
2018-01-30T22:02:41.010Z,9.70
2018-01-30T22:05:08.651Z,9.70
2018-01-30T22:07:36.128Z,9.80
2018-01-30T22:10:03.734Z,9.80
2018-01-30T22:12:32.093Z,9.80
2018-01-30T22:14:59.695Z,9.80
2018-01-30T22:17:27.210Z,9.80
2018-01-30T22:19:54.811Z,9.70
2018-01-30T22:22:22.486Z,9.90
2018-01-30T22:24:50.001Z,10.00
2018-01-30T22:27:17.549Z,10.00
2018-01-30T22:29:45.061Z,10.00
2018-01-30T22:32:12.701Z,10.00
2018-01-30T22:34:41.082Z,9.90
2018-01-30T22:37:08.612Z,9.90
2018-01-30T22:39:36.178Z,9.90
2018-01-30T22:42:03.804Z,9.90
2018-01-30T22:44:31.549Z,9.90
2018-01-30T22:46:59.055Z,9.80
